createdAt,value
2024-05-09T00:01:59.481Z,8.73
2024-05-09T00:04:30.171Z,8.80
2024-05-09T00:07:00.675Z,11.10
2024-05-09T00:09:33.178Z,9.32
2024-05-09T00:12:03.840Z,8.90
2024-05-09T00:14:33.834Z,8.13
2024-05-09T00:17:03.793Z,7.72
2024-05-09T00:19:34.322Z,8.90
2024-05-09T00:22:04.854Z,9.40
2024-05-09T00:24:38.272Z,9.32
2024-05-09T00:27:10.073Z,7.55
2024-05-09T00:29:41.752Z,8.75
2024-05-09T00:32:12.069Z,7.18
2024-05-09T00:34:43.088Z,7.65
2024-05-09T00:37:13.635Z,7.22
2024-05-09T00:39:46.244Z,7.18
2024-05-09T00:44:46.924Z,5.63
2024-05-09T00:47:18.272Z,8.23
2024-05-09T00:49:49.496Z,7.75
2024-05-09T00:52:20.373Z,7.47
2024-05-09T00:54:53.707Z,7.05
2024-05-09T00:57:24.632Z,8.27
2024-05-09T00:59:56.287Z,8.68
2024-05-09T01:02:28.745Z,8.65
2024-05-09T01:04:59.483Z,7.13
2024-05-09T01:07:30.185Z,6.55
2024-05-09T01:10:11.494Z,4.72
2024-05-09T01:12:44.628Z,5.50
2024-05-09T01:15:20.636Z,6.78
2024-05-09T01:17:51.444Z,8.23
2024-05-09T01:20:31.809Z,6.15
2024-05-09T01:23:14.869Z,6.75
2024-05-09T01:25:47.248Z,4.38
2024-05-09T01:28:17.664Z,7.20
2024-05-09T01:30:47.611Z,4.28
2024-05-09T01:33:17.685Z,5.35
2024-05-09T01:35:47.678Z,4.55
2024-05-09T01:38:20.298Z,6.30
2024-05-09T01:43:21.090Z,4.88
2024-05-09T01:45:51.606Z,5.68
2024-05-09T01:48:22.397Z,5.13
2024-05-09T01:50:56.025Z,4.95
2024-05-09T01:53:29.248Z,4.00
2024-05-09T01:55:59.328Z,5.65
2024-05-09T01:58:30.331Z,7.82
2024-05-09T02:01:00.852Z,5.72
2024-05-09T02:03:31.011Z,5.43
2024-05-09T02:06:01.733Z,5.85
2024-05-09T02:08:34.611Z,5.28
2024-05-09T02:11:05.237Z,5.35
2024-05-09T02:13:35.210Z,4.72
2024-05-09T02:16:05.881Z,5.20
2024-05-09T02:18:36.032Z,4.80
2024-05-09T02:21:06.932Z,4.78
2024-05-09T02:23:39.809Z,4.63
2024-05-09T02:26:10.751Z,4.75
2024-05-09T02:28:41.269Z,4.35
2024-05-09T02:31:14.698Z,4.82
2024-05-09T02:33:45.186Z,4.47
2024-05-09T02:36:15.858Z,3.80
2024-05-09T02:38:46.288Z,4.30
2024-05-09T02:41:16.871Z,4.85
2024-05-09T02:43:44.739Z,6.55
2024-05-09T02:46:15.188Z,6.80
2024-05-09T02:48:43.434Z,5.60
2024-05-09T02:51:14.021Z,5.28
2024-05-09T02:53:41.957Z,4.15
2024-05-09T02:56:15.159Z,5.38
2024-05-09T02:58:42.570Z,6.78
2024-05-09T03:01:12.624Z,5.57
2024-05-09T03:03:43.527Z,5.15
2024-05-09T03:06:14.162Z,5.22
2024-05-09T03:08:44.965Z,5.85
2024-05-09T03:11:26.236Z,5.32
2024-05-09T03:13:55.158Z,5.05
2024-05-09T03:16:25.194Z,5.70
2024-05-09T03:18:54.764Z,8.35
2024-05-09T03:21:24.933Z,6.57
2024-05-09T03:23:52.239Z,4.75
2024-05-09T03:26:25.388Z,5.03
2024-05-09T03:28:53.385Z,4.25
2024-05-09T03:31:23.882Z,4.40
2024-05-09T03:33:52.017Z,6.07
2024-05-09T03:36:22.675Z,5.38
2024-05-09T03:38:53.101Z,5.50
2024-05-09T03:41:26.330Z,5.35
2024-05-09T03:46:26.589Z,4.15
2024-05-09T03:48:55.526Z,6.43
2024-05-09T03:51:26.012Z,5.97
2024-05-09T03:53:53.864Z,5.55
2024-05-09T03:56:26.705Z,4.28
2024-05-09T03:58:55.375Z,5.82
2024-05-09T04:01:25.608Z,6.30
2024-05-09T04:03:53.155Z,4.68
2024-05-09T04:06:26.533Z,6.25
2024-05-09T04:11:29.757Z,4.18
2024-05-09T04:16:27.370Z,6.35
2024-05-09T04:18:55.250Z,4.65
2024-05-09T04:21:25.782Z,5.10
2024-05-09T04:23:53.108Z,4.82
2024-05-09T04:26:23.215Z,7.18
2024-05-09T04:28:56.314Z,4.85
2024-05-09T04:31:29.611Z,4.82
2024-05-09T04:36:27.292Z,5.30
2024-05-09T04:38:54.580Z,8.75
2024-05-09T04:41:24.485Z,3.80
2024-05-09T04:43:55.703Z,8.57
2024-05-09T04:46:26.197Z,7.68
2024-05-09T04:48:54.196Z,9.88
2024-05-09T04:51:25.264Z,5.13
2024-05-09T04:53:53.099Z,7.05
2024-05-09T04:56:23.077Z,5.50
2024-05-09T04:58:50.535Z,4.13
2024-05-09T05:01:23.783Z,5.45
2024-05-09T05:06:22.676Z,4.22
2024-05-09T05:08:50.043Z,4.15
2024-05-09T05:11:20.043Z,4.53
2024-05-09T05:13:50.283Z,8.55
2024-05-09T05:16:20.250Z,8.45
2024-05-09T05:18:50.831Z,6.25
2024-05-09T05:21:21.068Z,3.67
2024-05-09T05:23:48.597Z,5.55
2024-05-09T05:26:20.568Z,4.03
2024-05-09T05:28:48.541Z,4.25
2024-05-09T05:31:21.575Z,8.13
2024-05-09T05:33:52.173Z,6.70
2024-05-09T05:36:23.450Z,6.10
2024-05-09T05:38:51.744Z,4.75
2024-05-09T05:41:21.817Z,7.32
2024-05-09T05:43:49.770Z,3.88
2024-05-09T05:46:20.286Z,5.05
2024-05-09T05:48:47.648Z,6.10
2024-05-09T05:51:20.863Z,4.45
2024-05-09T05:53:48.763Z,7.10
2024-05-09T05:56:19.269Z,7.25
2024-05-09T05:58:47.194Z,6.32
2024-05-09T06:01:17.736Z,6.80
2024-05-09T06:03:45.886Z,3.70
2024-05-09T06:06:16.552Z,5.88
2024-05-09T06:08:47.148Z,10.10
2024-05-09T06:11:17.666Z,5.10
2024-05-09T06:13:45.594Z,3.97
2024-05-09T06:16:15.588Z,5.90
2024-05-09T06:18:43.523Z,5.25
2024-05-09T06:21:13.543Z,4.35
2024-05-09T06:23:48.175Z,5.45
2024-05-09T06:26:18.831Z,10.05
2024-05-09T06:28:46.826Z,5.90
2024-05-09T06:31:17.354Z,9.02
2024-05-09T06:33:45.405Z,4.32
2024-05-09T06:36:16.039Z,4.38
2024-05-09T06:38:44.008Z,5.53
2024-05-09T06:41:17.226Z,4.88
2024-05-09T06:43:45.237Z,3.13
2024-05-09T06:46:15.743Z,5.82
2024-05-09T06:48:43.742Z,4.57
2024-05-09T06:51:13.862Z,3.78
2024-05-09T06:53:41.702Z,4.15
2024-05-09T06:56:11.760Z,4.68
2024-05-09T06:58:41.966Z,11.10
2024-05-09T07:01:11.890Z,5.10
2024-05-09T07:03:44.487Z,3.30
2024-05-09T07:06:12.507Z,5.78
2024-05-09T07:08:43.063Z,3.97
2024-05-09T07:11:10.487Z,5.15
2024-05-09T07:13:40.494Z,4.10
2024-05-09T07:16:10.443Z,4.38
2024-05-09T07:18:41.197Z,5.88
2024-05-09T07:21:09.372Z,3.25
2024-05-09T07:23:39.370Z,4.88
2024-05-09T07:26:07.224Z,6.40
2024-05-09T07:28:37.711Z,4.97
2024-05-09T07:31:05.291Z,5.63
2024-05-09T07:33:38.000Z,3.67
2024-05-09T07:36:06.367Z,3.78
2024-05-09T07:38:37.380Z,6.18
2024-05-09T07:41:06.755Z,5.35
2024-05-09T07:43:37.282Z,3.90
2024-05-09T07:47:04.445Z,4.18
2024-05-09T07:50:35.596Z,7.80
2024-05-09T07:54:19.728Z,3.80
2024-05-09T07:56:47.281Z,3.75
2024-05-09T07:59:17.748Z,2.85
2024-05-09T08:01:45.320Z,3.22
2024-05-09T08:04:18.648Z,6.50
2024-05-09T08:06:46.622Z,5.53
2024-05-09T08:09:20.974Z,5.18
2024-05-09T08:11:52.671Z,6.30
2024-05-09T08:14:23.288Z,4.57
2024-05-09T08:16:51.104Z,3.90
2024-05-09T08:19:23.693Z,3.58
2024-05-09T08:24:21.414Z,2.00
2024-05-09T08:26:48.765Z,4.22
2024-05-09T08:29:19.205Z,6.40
2024-05-09T08:31:47.059Z,2.15
2024-05-09T08:34:17.680Z,3.28
2024-05-09T08:36:48.336Z,5.28
2024-05-09T08:39:18.316Z,2.83
2024-05-09T08:41:49.736Z,6.43
2024-05-09T08:44:21.306Z,3.08
2024-05-09T08:46:51.804Z,3.25
2024-05-09T08:49:22.389Z,2.88
2024-05-09T08:51:53.322Z,2.05
2024-05-09T08:54:23.393Z,4.68
2024-05-09T08:56:52.552Z,5.90
2024-05-09T08:59:30.105Z,2.70
2024-05-09T09:01:59.173Z,4.53
2024-05-09T09:04:31.371Z,3.80
2024-05-09T09:07:03.560Z,2.55
2024-05-09T09:09:35.245Z,2.75
2024-05-09T09:12:02.863Z,2.88
2024-05-09T09:14:33.362Z,2.67
2024-05-09T09:17:01.257Z,2.72
2024-05-09T09:19:31.821Z,3.83
2024-05-09T09:22:02.528Z,3.90
2024-05-09T09:24:33.011Z,3.85
2024-05-09T09:27:01.161Z,4.10
2024-05-09T09:29:32.006Z,3.97
2024-05-09T09:31:59.520Z,3.58
2024-05-09T09:34:31.419Z,6.53
2024-05-09T09:37:06.488Z,7.40
2024-05-09T09:39:38.064Z,3.90
2024-05-09T09:42:06.700Z,3.33
2024-05-09T09:44:39.598Z,4.55
2024-05-09T09:47:11.157Z,4.18
2024-05-09T09:49:42.328Z,4.28
2024-05-09T09:52:13.515Z,3.40
2024-05-09T09:54:46.659Z,3.03
2024-05-09T09:57:15.279Z,4.00
2024-05-09T09:59:49.576Z,3.83
2024-05-09T10:02:17.586Z,4.22
2024-05-09T10:04:47.792Z,4.80
2024-05-09T10:07:21.374Z,4.22
2024-05-09T10:09:52.151Z,4.00
2024-05-09T10:12:23.712Z,3.47
2024-05-09T10:14:56.839Z,2.35
2024-05-09T10:17:24.341Z,3.92
2024-05-09T10:19:54.328Z,5.45
2024-05-09T10:22:31.047Z,3.60
2024-05-09T10:25:08.110Z,2.50
2024-05-09T10:27:36.103Z,3.00
2024-05-09T10:30:14.354Z,3.03
2024-05-09T10:32:45.700Z,2.80
2024-05-09T10:35:16.003Z,3.40
2024-05-09T10:37:46.850Z,3.40
2024-05-09T10:40:25.912Z,4.60
2024-05-09T10:42:58.423Z,2.70
2024-05-09T10:45:29.314Z,4.63
2024-05-09T10:47:57.587Z,5.57
2024-05-09T10:50:34.021Z,4.55
2024-05-09T10:53:05.559Z,2.65
2024-05-09T10:55:38.933Z,2.60
2024-05-09T10:58:19.171Z,2.85
2024-05-09T11:00:49.196Z,3.75
2024-05-09T11:03:18.531Z,3.83
2024-05-09T11:05:50.086Z,5.05
2024-05-09T11:08:22.125Z,4.22
2024-05-09T11:10:55.078Z,4.70
2024-05-09T11:13:29.610Z,3.90
2024-05-09T11:16:00.443Z,2.50
2024-05-09T11:18:33.271Z,4.97
2024-05-09T11:21:14.692Z,1.80
2024-05-09T11:23:45.237Z,3.03
2024-05-09T11:26:19.282Z,3.15
2024-05-09T11:28:47.153Z,3.70
2024-05-09T11:31:17.966Z,3.60
2024-05-09T11:33:46.762Z,3.15
2024-05-09T11:36:18.083Z,3.15
2024-05-09T11:38:48.682Z,6.22
2024-05-09T11:41:21.521Z,5.07
2024-05-09T11:43:49.442Z,5.68
2024-05-09T11:46:22.501Z,3.58
2024-05-09T11:51:20.263Z,3.88
2024-05-09T11:53:50.767Z,4.50
2024-05-09T11:56:21.245Z,3.03
2024-05-09T11:58:49.122Z,3.60
2024-05-09T12:01:20.125Z,2.40
2024-05-09T12:03:49.638Z,3.50
2024-05-09T12:06:20.414Z,4.15
2024-05-09T12:08:51.008Z,2.30
2024-05-09T12:11:22.256Z,6.03
2024-05-09T12:13:50.159Z,3.97
2024-05-09T12:16:21.018Z,3.25
2024-05-09T12:18:49.113Z,2.88
2024-05-09T12:21:19.740Z,2.55
2024-05-09T12:23:47.624Z,2.63
2024-05-09T12:26:23.203Z,3.03
2024-05-09T12:28:51.019Z,3.13
2024-05-09T12:31:21.544Z,4.88
2024-05-09T12:33:49.460Z,3.78
2024-05-09T12:36:20.022Z,1.80
2024-05-09T12:38:49.989Z,2.83
2024-05-09T12:41:23.213Z,2.33
2024-05-09T12:43:50.531Z,3.17
2024-05-09T12:46:23.375Z,3.03
2024-05-09T12:48:51.190Z,2.37
2024-05-09T12:51:21.134Z,2.70
2024-05-09T12:53:49.055Z,2.97
2024-05-09T12:56:19.094Z,3.58
2024-05-09T12:58:51.149Z,2.60
2024-05-09T13:01:21.279Z,3.92
2024-05-09T13:03:49.495Z,3.17
2024-05-09T13:06:19.559Z,3.45
2024-05-09T13:08:47.983Z,3.28
2024-05-09T13:11:18.719Z,2.72
2024-05-09T13:13:46.666Z,5.85
2024-05-09T13:16:19.412Z,1.95
2024-05-09T13:18:47.352Z,5.35
2024-05-09T13:21:17.433Z,3.72
2024-05-09T13:23:45.669Z,3.78
2024-05-09T13:26:16.225Z,3.35
2024-05-09T13:28:43.668Z,1.85
2024-05-09T13:31:14.319Z,3.92
2024-05-09T13:33:45.069Z,4.53
2024-05-09T13:36:15.881Z,5.03
2024-05-09T13:38:43.785Z,2.83
2024-05-09T13:41:16.747Z,3.38
2024-05-09T13:43:44.061Z,4.75
2024-05-09T13:46:14.742Z,2.97
2024-05-09T13:48:45.741Z,2.80
2024-05-09T13:51:15.693Z,3.13
2024-05-09T13:53:43.535Z,3.00
2024-05-09T13:56:14.046Z,2.25
2024-05-09T13:58:42.336Z,2.05
2024-05-09T14:01:12.382Z,3.20
2024-05-09T14:03:40.371Z,3.33
2024-05-09T14:06:13.578Z,2.88
2024-05-09T14:11:11.720Z,1.73
2024-05-09T14:13:39.620Z,4.45
2024-05-09T14:16:10.303Z,3.90
2024-05-09T14:18:38.346Z,2.53
2024-05-09T14:21:08.562Z,3.47
2024-05-09T14:23:39.085Z,2.03
2024-05-09T14:26:12.446Z,1.85
2024-05-09T14:28:40.327Z,3.78
2024-05-09T14:31:10.898Z,3.88
2024-05-09T14:33:38.465Z,2.75
2024-05-09T14:36:09.841Z,4.20
2024-05-09T14:38:40.481Z,2.53
2024-05-09T14:41:13.410Z,3.17
2024-05-09T14:43:41.323Z,4.07
2024-05-09T14:46:12.027Z,2.08
2024-05-09T14:48:40.242Z,5.30
2024-05-09T14:51:11.081Z,2.35
2024-05-09T14:53:41.560Z,2.92
2024-05-09T14:56:11.978Z,3.25
2024-05-09T14:58:39.863Z,6.55
2024-05-09T15:01:09.907Z,2.83
2024-05-09T15:03:37.484Z,3.45
2024-05-09T15:06:07.930Z,2.67
2024-05-09T15:08:35.940Z,4.10
2024-05-09T15:11:09.188Z,2.20
2024-05-09T15:13:37.224Z,2.92
2024-05-09T15:16:08.479Z,2.78
2024-05-09T15:18:36.706Z,2.03
2024-05-09T15:21:08.263Z,3.13
2024-05-09T15:23:36.181Z,3.92
2024-05-09T15:26:08.912Z,5.50
2024-05-09T15:28:36.903Z,2.35
2024-05-09T15:31:07.704Z,1.50
2024-05-09T15:33:35.697Z,2.88
2024-05-09T15:36:06.474Z,2.88
2024-05-09T15:38:33.843Z,2.58
2024-05-09T15:41:04.413Z,3.33
2024-05-09T15:43:35.815Z,2.53
2024-05-09T15:46:05.997Z,4.35
2024-05-09T15:48:34.509Z,2.35
2024-05-09T15:51:05.506Z,4.13
2024-05-09T15:53:33.373Z,3.13
2024-05-09T15:56:03.568Z,4.13
2024-05-09T15:58:31.509Z,2.17
2024-05-09T16:01:04.773Z,2.97
2024-05-09T16:03:32.804Z,2.30
2024-05-09T16:06:03.902Z,4.15
2024-05-09T16:08:32.005Z,2.83
2024-05-09T16:11:02.209Z,2.38
2024-05-09T16:13:30.165Z,3.25
2024-05-09T16:16:00.978Z,4.07
2024-05-09T16:18:31.496Z,2.35
2024-05-09T16:21:02.188Z,2.05
2024-05-09T16:23:30.418Z,2.90
2024-05-09T16:26:00.415Z,4.97
2024-05-09T16:28:28.534Z,3.60
2024-05-09T16:31:01.430Z,3.75
2024-05-09T16:33:32.134Z,3.30
2024-05-09T16:36:02.940Z,2.83
2024-05-09T16:38:31.235Z,3.53
2024-05-09T16:41:01.772Z,2.03
2024-05-09T16:43:29.184Z,3.10
2024-05-09T16:45:59.785Z,4.93
2024-05-09T16:48:27.165Z,3.50
2024-05-09T16:50:59.841Z,3.30
2024-05-09T16:53:27.850Z,4.80
2024-05-09T16:55:57.909Z,3.85
2024-05-09T16:58:26.633Z,3.10
2024-05-09T17:00:57.713Z,1.90
2024-05-09T17:03:25.699Z,3.53
2024-05-09T17:05:59.275Z,3.08
2024-05-09T17:08:27.158Z,2.55
2024-05-09T17:10:58.163Z,2.15
2024-05-09T17:13:28.830Z,4.47
2024-05-09T17:15:56.279Z,3.08
2024-05-09T17:18:27.382Z,2.88
2024-05-09T17:20:57.855Z,2.63
2024-05-09T17:23:29.219Z,3.42
2024-05-09T17:25:57.138Z,2.55
2024-05-09T17:28:27.243Z,3.10
2024-05-09T17:30:58.065Z,3.72
2024-05-09T17:33:25.509Z,3.72
2024-05-09T17:35:55.619Z,3.63
2024-05-09T17:38:26.196Z,4.03
2024-05-09T17:41:00.660Z,2.90
2024-05-09T17:43:29.046Z,3.78
2024-05-09T17:45:59.808Z,3.10
2024-05-09T17:48:27.600Z,3.97
2024-05-09T17:50:58.116Z,3.10
2024-05-09T17:53:28.629Z,3.13
2024-05-09T17:56:00.397Z,2.63
2024-05-09T17:58:28.534Z,6.63
2024-05-09T18:00:58.735Z,4.13
2024-05-09T18:03:27.264Z,2.30
2024-05-09T18:05:58.152Z,5.03
2024-05-09T18:08:28.658Z,5.43
2024-05-09T18:11:02.406Z,5.28
2024-05-09T18:13:30.478Z,5.28
2024-05-09T18:16:01.280Z,6.50
2024-05-09T18:18:32.365Z,4.65
2024-05-09T18:21:02.981Z,3.28
2024-05-09T18:23:33.753Z,3.17
2024-05-09T18:26:05.721Z,6.38
2024-05-09T18:28:33.710Z,3.78
2024-05-09T18:31:04.280Z,6.97
2024-05-09T18:33:31.889Z,4.78
2024-05-09T18:36:02.604Z,5.53
2024-05-09T18:38:35.204Z,6.22
2024-05-09T18:41:02.915Z,13.07
2024-05-09T18:43:38.544Z,8.57
2024-05-09T18:46:12.191Z,5.15
2024-05-09T18:48:43.082Z,4.80
2024-05-09T18:51:11.533Z,5.05
2024-05-09T18:53:45.062Z,5.03
2024-05-09T18:56:16.328Z,6.45
2024-05-09T18:58:46.851Z,8.00
2024-05-09T19:01:14.928Z,4.82
2024-05-09T19:03:45.714Z,5.10
2024-05-09T19:06:13.921Z,4.85
2024-05-09T19:08:47.672Z,5.70
2024-05-09T19:11:15.352Z,7.25
2024-05-09T19:13:45.910Z,8.68
2024-05-09T19:16:13.428Z,11.27
2024-05-09T19:18:44.739Z,9.68
2024-05-09T19:21:14.443Z,11.05
2024-05-09T19:23:52.120Z,9.27
2024-05-09T19:26:20.447Z,6.68
2024-05-09T19:28:50.953Z,11.13
2024-05-09T19:31:18.622Z,8.93
2024-05-09T19:33:48.835Z,8.88
2024-05-09T19:36:19.230Z,11.63
2024-05-09T19:38:52.523Z,5.75
2024-05-09T19:41:20.260Z,16.00
2024-05-09T19:43:50.949Z,18.23
2024-05-09T19:46:19.284Z,7.70
2024-05-09T19:48:49.556Z,8.32
2024-05-09T19:51:17.733Z,8.00
2024-05-09T19:53:48.384Z,8.90
2024-05-09T19:56:19.010Z,9.10
2024-05-09T19:58:49.489Z,5.95
2024-05-09T20:01:17.843Z,6.63
2024-05-09T20:03:48.546Z,7.03
2024-05-09T20:06:16.581Z,9.55
2024-05-09T20:08:46.590Z,7.70
2024-05-09T20:11:15.344Z,9.77
2024-05-09T20:13:48.524Z,11.73
2024-05-09T20:16:16.530Z,10.10
2024-05-09T20:18:47.899Z,10.20
2024-05-09T20:21:15.956Z,7.28
2024-05-09T20:23:45.940Z,7.72
2024-05-09T20:26:13.873Z,7.07
2024-05-09T20:28:44.988Z,7.80
2024-05-09T20:31:20.518Z,6.75
2024-05-09T20:33:51.220Z,7.10
2024-05-09T20:36:19.073Z,8.05
2024-05-09T20:38:49.126Z,8.23
2024-05-09T20:41:16.977Z,6.70
2024-05-09T20:43:47.018Z,7.68
2024-05-09T20:46:17.842Z,6.47
2024-05-09T20:48:48.463Z,9.02
2024-05-09T20:51:15.880Z,4.75
2024-05-09T20:53:45.875Z,6.25
2024-05-09T20:56:15.033Z,6.10
2024-05-09T20:58:45.561Z,5.60
2024-05-09T21:01:13.470Z,6.53
2024-05-09T21:03:47.531Z,6.05
2024-05-09T21:06:15.556Z,7.93
2024-05-09T21:08:46.058Z,6.85
2024-05-09T21:11:13.618Z,5.68
2024-05-09T21:13:44.192Z,6.20
2024-05-09T21:16:11.694Z,6.53
2024-05-09T21:18:42.296Z,5.85
2024-05-09T21:21:12.325Z,5.10
2024-05-09T21:23:42.833Z,6.85
2024-05-09T21:26:10.766Z,10.38
2024-05-09T21:28:40.720Z,8.80
2024-05-09T21:31:08.982Z,7.88
2024-05-09T21:33:39.151Z,7.53
2024-05-09T21:36:11.802Z,8.00
2024-05-09T21:38:43.080Z,7.82
2024-05-09T21:41:10.525Z,9.27
2024-05-09T21:43:41.454Z,8.88
2024-05-09T21:46:09.427Z,9.40
2024-05-09T21:48:40.132Z,7.80
2024-05-09T21:51:15.985Z,16.27
2024-05-09T21:53:45.988Z,7.05
2024-05-09T21:56:13.837Z,8.35
2024-05-09T21:58:43.789Z,6.45
2024-05-09T22:01:11.757Z,9.32
2024-05-09T22:03:42.194Z,8.40
2024-05-09T22:06:10.100Z,5.88
2024-05-09T22:08:43.017Z,7.53
2024-05-09T22:11:10.820Z,6.15
2024-05-09T22:13:44.008Z,7.05
2024-05-09T22:16:12.066Z,6.18
2024-05-09T22:18:42.793Z,9.45
2024-05-09T22:21:10.608Z,11.88
2024-05-09T22:23:43.147Z,8.48
2024-05-09T22:26:10.910Z,8.80
2024-05-09T22:28:40.727Z,8.63
2024-05-09T22:31:08.836Z,7.15
2024-05-09T22:33:39.586Z,7.75
2024-05-09T22:36:08.680Z,8.55
2024-05-09T22:38:39.347Z,8.45
2024-05-09T22:41:09.653Z,10.07
2024-05-09T22:43:40.031Z,6.78
2024-05-09T22:46:10.480Z,9.88
2024-05-09T22:48:38.207Z,8.45
2024-05-09T22:51:08.995Z,5.82
2024-05-09T22:53:36.745Z,6.05
2024-05-09T22:56:08.003Z,5.22
2024-05-09T22:58:38.008Z,5.82
2024-05-09T23:01:08.399Z,5.85
2024-05-09T23:03:39.266Z,7.50
2024-05-09T23:06:09.579Z,5.82
2024-05-09T23:08:36.870Z,7.22
2024-05-09T23:11:08.597Z,8.23
2024-05-09T23:13:39.216Z,5.80
2024-05-09T23:16:10.037Z,6.00
2024-05-09T23:18:37.501Z,5.70
2024-05-09T23:21:07.990Z,4.88
2024-05-09T23:23:35.256Z,8.07
2024-05-09T23:26:05.661Z,6.35
2024-05-09T23:28:33.617Z,5.63
2024-05-09T23:31:07.601Z,4.63
2024-05-09T23:33:35.709Z,5.68
2024-05-09T23:36:06.523Z,4.32
2024-05-09T23:38:33.735Z,6.68
2024-05-09T23:41:06.418Z,7.15
2024-05-09T23:43:36.225Z,7.03
2024-05-09T23:46:09.249Z,9.45
2024-05-09T23:48:37.179Z,7.57
2024-05-09T23:51:07.919Z,6.13
2024-05-09T23:53:35.219Z,5.95
2024-05-09T23:56:05.602Z,8.25
2024-05-09T23:58:33.394Z,18.90
